Time;durP1;ratioP1;P1;durP2;ratioP2;P2;SDS_P1;SDS_P2;PMS_P1;PMS_P2;Temp;Humidity;BMP_temperature;BMP_pressure;BME280_temperature;BME280_humidity;BME280_pressure;Samples;Min_cycle;Max_cycle;Signal;HPM_P1;HPM_P2
2021/09/10 00:00:14;;;;;;;4.57;3.67;;;23.50;99.90;;;;;;5006164;28;20539;-75
2021/09/10 00:02:42;;;;;;;4.80;4.40;;;23.40;99.90;;;;;;5006823;28;21019;-77
2021/09/10 00:05:11;;;;;;;5.17;4.67;;;23.40;99.90;;;;;;5008006;28;20473;-78
2021/09/10 00:07:39;;;;;;;4.73;4.40;;;23.40;99.90;;;;;;4988611;28;20462;-77
2021/09/10 00:10:09;;;;;;;4.40;4.00;;;23.40;99.90;;;;;;5006416;28;20868;-74
2021/09/10 00:12:37;;;;;;;5.50;5.10;;;23.40;99.90;;;;;;5011584;28;20457;-76
2021/09/10 00:15:06;;;;;;;8.13;4.90;;;23.40;99.90;;;;;;5006866;28;20448;-73
2021/09/10 00:17:36;;;;;;;5.47;4.90;;;23.40;99.90;;;;;;5006105;28;20460;-77
2021/09/10 00:20:05;;;;;;;6.83;5.57;;;23.40;99.90;;;;;;5006099;28;20487;-76
2021/09/10 00:22:34;;;;;;;5.53;5.10;;;23.40;99.90;;;;;;5005066;28;20477;-78
2021/09/10 00:25:02;;;;;;;5.43;4.93;;;23.30;99.90;;;;;;5008398;28;20880;-78
2021/09/10 00:27:30;;;;;;;5.97;4.60;;;23.30;99.90;;;;;;5004346;28;20461;-76
2021/09/10 00:29:58;;;;;;;6.17;5.57;;;23.30;99.90;;;;;;5005570;28;20969;-77
2021/09/10 00:32:27;;;;;;;5.53;5.03;;;23.20;99.90;;;;;;5003803;28;20500;-75
2021/09/10 00:34:56;;;;;;;5.47;4.97;;;23.20;99.90;;;;;;4993311;28;20973;-77
2021/09/10 00:37:24;;;;;;;4.90;4.60;;;23.20;99.90;;;;;;5005866;28;20449;-78
2021/09/10 00:39:52;;;;;;;4.80;4.40;;;23.20;99.90;;;;;;5000054;28;20456;-75
2021/09/10 00:42:20;;;;;;;4.70;4.30;;;23.20;99.90;;;;;;5004145;28;20567;-77
2021/09/10 00:44:48;;;;;;;4.97;4.53;;;23.20;99.90;;;;;;5007483;28;20491;-77
2021/09/10 00:47:17;;;;;;;5.47;4.97;;;23.20;99.90;;;;;;5005811;28;20477;-77
2021/09/10 00:49:45;;;;;;;4.90;4.50;;;23.20;99.90;;;;;;5006782;28;20453;-78
2021/09/10 00:52:15;;;;;;;5.10;4.70;;;23.10;99.90;;;;;;5004013;28;20485;-79
2021/09/10 00:54:44;;;;;;;5.70;5.20;;;23.10;99.90;;;;;;5007179;28;20464;-78
2021/09/10 00:57:12;;;;;;;5.77;5.17;;;23.10;99.90;;;;;;5005168;28;20454;-75
2021/09/10 00:59:40;;;;;;;5.70;5.07;;;23.10;99.90;;;;;;5005341;28;20495;-78
2021/09/10 01:02:08;;;;;;;5.50;5.10;;;23.10;99.90;;;;;;5005209;28;21047;-77
2021/09/10 01:04:36;;;;;;;5.90;5.30;;;23.00;99.90;;;;;;5008454;28;20466;-78
2021/09/10 01:07:04;;;;;;;5.50;5.10;;;23.10;99.90;;;;;;4998399;28;20513;-77
2021/09/10 01:09:36;;;;;;;6.00;4.50;;;23.10;99.90;;;;;;5006553;28;20878;-78
2021/09/10 01:12:06;;;;;;;6.30;5.27;;;23.00;99.90;;;;;;5002658;28;20477;-76
2021/09/10 01:14:34;;;;;;;6.37;5.20;;;23.00;99.90;;;;;;5006816;28;20466;-78
2021/09/10 01:17:03;;;;;;;4.97;4.57;;;23.00;99.90;;;;;;5005210;28;20519;-79
2021/09/10 01:19:33;;;;;;;5.63;5.13;;;23.10;99.90;;;;;;5006830;28;20511;-78
2021/09/10 01:22:04;;;;;;;5.40;4.90;;;23.10;99.90;;;;;;4997280;28;20547;-78
2021/09/10 01:24:37;;;;;;;7.00;6.30;;;23.10;99.90;;;;;;5007066;28;20481;-77
2021/09/10 01:27:07;;;;;;;6.47;5.90;;;23.10;99.90;;;;;;5005900;28;21065;-78
2021/09/10 01:29:36;;;;;;;5.80;5.23;;;23.10;99.90;;;;;;5005396;28;20527;-78
2021/09/10 01:32:06;;;;;;;6.53;5.97;;;23.00;99.90;;;;;;5004089;28;21044;-78
2021/09/10 01:34:34;;;;;;;6.10;5.70;;;23.10;99.90;;;;;;5006620;28;20449;-77
2021/09/10 01:37:02;;;;;;;5.80;5.37;;;23.00;99.90;;;;;;5006335;28;20796;-77
2021/09/10 01:39:30;;;;;;;6.43;5.83;;;22.80;99.90;;;;;;5002232;28;20449;-78
2021/09/10 01:42:00;;;;;;;6.10;5.50;;;22.90;99.90;;;;;;5002817;28;20485;-77
2021/09/10 01:44:28;;;;;;;5.97;5.47;;;22.90;99.90;;;;;;5008615;28;20461;-78
2021/09/10 01:46:56;;;;;;;5.77;5.27;;;22.80;99.90;;;;;;5000265;28;20571;-75
2021/09/10 01:49:24;;;;;;;6.10;5.30;;;22.80;99.90;;;;;;4999459;28;20543;-76
2021/09/10 01:51:52;;;;;;;6.23;5.73;;;22.70;99.90;;;;;;5004843;28;20518;-77
2021/09/10 01:54:21;;;;;;;6.63;6.03;;;22.80;99.90;;;;;;5010039;28;20464;-77
2021/09/10 01:56:49;;;;;;;7.00;6.27;;;22.80;99.90;;;;;;5001599;28;20820;-77
2021/09/10 01:59:18;;;;;;;5.13;4.63;;;22.80;99.90;;;;;;5001390;28;20457;-80
2021/09/10 02:01:46;;;;;;;6.43;5.83;;;22.80;99.90;;;;;;5002886;28;22162;-80
2021/09/10 02:04:18;;;;;;;5.37;4.97;;;22.70;99.90;;;;;;5013162;28;20449;-75
2021/09/10 02:06:46;;;;;;;6.27;5.70;;;22.60;99.90;;;;;;5014403;28;20477;-78
2021/09/10 02:09:14;;;;;;;5.73;5.33;;;22.60;99.90;;;;;;5004430;28;20865;-76
2021/09/10 02:11:43;;;;;;;6.83;6.07;;;22.50;99.90;;;;;;5006818;28;21153;-77
2021/09/10 02:14:11;;;;;;;6.00;5.50;;;22.50;99.90;;;;;;5010897;28;20801;-77
2021/09/10 02:16:41;;;;;;;5.73;5.30;;;22.50;99.90;;;;;;5002080;28;20453;-77
2021/09/10 02:19:10;;;;;;;5.33;4.93;;;22.50;99.90;;;;;;5012169;28;20512;-79
2021/09/10 02:21:38;;;;;;;6.00;5.40;;;22.50;99.90;;;;;;4999241;28;20567;-76
2021/09/10 02:24:06;;;;;;;6.13;5.63;;;22.50;99.90;;;;;;5003623;28;20468;-76
2021/09/10 02:26:35;;;;;;;6.40;5.80;;;22.50;99.90;;;;;;5004632;28;20481;-78
2021/09/10 02:29:04;;;;;;;6.00;5.50;;;22.60;99.90;;;;;;5004142;28;20457;-77
2021/09/10 02:31:32;;;;;;;5.50;5.00;;;22.70;99.90;;;;;;5003474;28;21014;-77
2021/09/10 02:34:02;;;;;;;5.87;5.23;;;22.70;99.90;;;;;;5005441;28;21107;-75
2021/09/10 02:36:30;;;;;;;6.07;5.50;;;22.70;99.90;;;;;;5005124;28;20453;-75
2021/09/10 02:38:58;;;;;;;6.33;5.83;;;22.80;99.90;;;;;;5004805;28;20493;-76
2021/09/10 02:41:29;;;;;;;5.93;5.43;;;22.80;99.90;;;;;;5003899;28;20534;-76
2021/09/10 02:43:57;;;;;;;5.70;5.20;;;22.80;99.90;;;;;;5005654;28;20478;-77
2021/09/10 02:46:25;;;;;;;5.90;5.30;;;22.80;99.90;;;;;;5009041;28;20491;-76
2021/09/10 02:48:53;;;;;;;7.23;6.03;;;22.80;99.90;;;;;;5007299;28;20449;-79
2021/09/10 02:51:23;;;;;;;5.93;5.30;;;22.90;99.90;;;;;;5003883;28;20459;-75
2021/09/10 02:53:51;;;;;;;6.23;5.63;;;22.80;99.90;;;;;;5005361;28;20474;-77
2021/09/10 02:56:19;;;;;;;6.50;5.40;;;22.80;99.90;;;;;;5012547;28;20456;-78
2021/09/10 02:58:47;;;;;;;6.33;5.83;;;22.70;99.90;;;;;;5003328;28;21239;-77
2021/09/10 03:01:15;;;;;;;5.63;5.23;;;22.70;99.90;;;;;;5006827;28;20516;-78
2021/09/10 03:03:44;;;;;;;5.73;5.33;;;22.70;99.90;;;;;;5007665;28;20449;-79
2021/09/10 03:06:12;;;;;;;6.50;5.90;;;22.70;99.90;;;;;;5016709;28;20955;-78
2021/09/10 03:08:42;;;;;;;6.13;5.53;;;22.70;99.90;;;;;;5010622;28;20449;-78
2021/09/10 03:11:10;;;;;;;5.23;4.83;;;22.60;99.90;;;;;;5008328;28;20441;-79
2021/09/10 03:13:38;;;;;;;6.07;5.53;;;22.60;99.90;;;;;;5010116;28;20492;-79
2021/09/10 03:16:07;;;;;;;7.07;6.20;;;22.60;99.90;;;;;;5007055;28;20487;-79
2021/09/10 03:18:35;;;;;;;5.40;5.00;;;22.60;99.90;;;;;;5006881;28;20793;-77
2021/09/10 03:21:03;;;;;;;8.37;5.57;;;22.50;99.90;;;;;;5006480;28;20543;-78
2021/09/10 03:23:31;;;;;;;6.63;6.00;;;22.50;99.90;;;;;;5008327;28;20875;-77
2021/09/10 03:26:01;;;;;;;5.73;5.33;;;22.50;99.90;;;;;;5007220;28;20463;-78
2021/09/10 03:28:29;;;;;;;6.53;5.40;;;22.50;99.90;;;;;;5008510;28;20547;-78
2021/09/10 03:30:57;;;;;;;6.93;5.70;;;22.50;99.90;;;;;;5004478;28;20523;-75
2021/09/10 03:33:25;;;;;;;5.90;5.37;;;22.50;99.90;;;;;;5017926;28;20488;-78
2021/09/10 03:35:54;;;;;;;6.37;5.87;;;22.40;99.90;;;;;;5008902;28;20515;-79
2021/09/10 03:38:22;;;;;;;6.97;6.40;;;22.50;99.90;;;;;;5011988;28;20486;-78
2021/09/10 03:40:50;;;;;;;6.93;6.33;;;22.40;99.90;;;;;;5005416;28;20465;-75
2021/09/10 03:43:19;;;;;;;6.10;5.67;;;22.40;99.90;;;;;;4991189;28;20465;-77
2021/09/10 03:45:47;;;;;;;7.30;6.20;;;22.40;99.90;;;;;;5015573;28;20452;-80
2021/09/10 03:48:15;;;;;;;7.90;7.10;;;22.40;99.90;;;;;;5004439;28;20512;-80
2021/09/10 03:50:44;;;;;;;7.40;6.70;;;22.30;99.90;;;;;;5005034;28;20488;-80
2021/09/10 03:53:12;;;;;;;6.60;6.00;;;22.20;99.90;;;;;;5011496;28;20549;-79
2021/09/10 03:55:40;;;;;;;6.53;5.90;;;22.10;99.90;;;;;;5014743;28;21538;-77
2021/09/10 03:58:08;;;;;;;6.90;6.10;;;22.10;99.90;;;;;;5016336;28;20948;-79
2021/09/10 04:00:37;;;;;;;7.63;7.03;;;22.10;99.90;;;;;;5006942;28;20464;-77
2021/09/10 04:03:05;;;;;;;8.67;6.43;;;22.20;99.90;;;;;;5001319;28;20488;-78
2021/09/10 04:05:34;;;;;;;6.23;5.83;;;22.20;99.90;;;;;;5006075;28;20514;-78
2021/09/10 04:08:03;;;;;;;7.00;6.40;;;22.20;99.90;;;;;;5008579;28;20484;-77
2021/09/10 04:10:31;;;;;;;6.10;5.60;;;22.20;99.90;;;;;;5006535;28;20515;-76
2021/09/10 04:12:59;;;;;;;6.47;5.93;;;22.20;99.90;;;;;;5006618;28;20662;-75
2021/09/10 04:15:28;;;;;;;7.53;6.90;;;22.10;99.90;;;;;;5004826;28;21018;-78
2021/09/10 04:17:58;;;;;;;6.80;6.10;;;21.90;99.90;;;;;;5020253;28;20772;-76
2021/09/10 04:20:26;;;;;;;6.83;6.13;;;21.90;99.90;;;;;;5013566;28;20456;-79
2021/09/10 04:22:54;;;;;;;7.70;6.27;;;21.80;99.90;;;;;;5005118;28;20516;-77
2021/09/10 04:25:22;;;;;;;6.17;5.57;;;21.80;99.90;;;;;;5014395;28;20652;-77
2021/09/10 04:27:50;;;;;;;7.20;6.50;;;21.80;99.90;;;;;;5007277;28;20519;-75
2021/09/10 04:30:19;;;;;;;7.40;6.70;;;21.70;99.90;;;;;;5003882;28;20596;-77
2021/09/10 04:32:47;;;;;;;7.83;6.20;;;21.70;99.90;;;;;;5005959;28;20469;-79
2021/09/10 04:35:17;;;;;;;6.70;6.10;;;21.70;99.90;;;;;;5006540;28;20449;-77
2021/09/10 04:37:45;;;;;;;6.20;5.70;;;21.80;99.90;;;;;;5007938;28;20731;-79
2021/09/10 04:40:14;;;;;;;7.17;6.57;;;21.70;99.90;;;;;;5002667;28;20458;-78
2021/09/10 04:42:44;;;;;;;9.07;7.50;;;21.70;99.90;;;;;;5002043;28;20500;-78
2021/09/10 04:45:12;;;;;;;8.23;6.00;;;21.70;99.90;;;;;;5001735;28;20980;-78
2021/09/10 04:47:41;;;;;;;6.10;5.60;;;21.70;99.90;;;;;;5007812;28;20473;-76
2021/09/10 04:50:09;;;;;;;6.30;5.80;;;21.60;99.90;;;;;;5004570;28;20453;-79
2021/09/10 04:52:39;;;;;;;8.67;6.10;;;21.60;99.90;;;;;;5009360;28;20476;-79
2021/09/10 04:55:09;;;;;;;6.43;5.93;;;21.60;99.90;;;;;;5003512;28;20869;-78
2021/09/10 04:57:37;;;;;;;7.90;6.40;;;21.50;99.90;;;;;;5006884;28;20514;-76
2021/09/10 05:00:07;;;;;;;7.53;6.73;;;21.50;99.90;;;;;;5005814;28;20685;-78
2021/09/10 05:02:36;;;;;;;7.20;6.60;;;21.50;99.90;;;;;;5004133;28;20624;-76
2021/09/10 05:05:06;;;;;;;6.97;6.27;;;21.50;99.90;;;;;;5011662;28;20453;-73
2021/09/10 05:07:34;;;;;;;6.70;6.03;;;21.50;99.90;;;;;;5004931;28;20485;-77
2021/09/10 05:10:04;;;;;;;6.70;6.10;;;21.50;99.90;;;;;;5004457;28;21060;-77
2021/09/10 05:12:32;;;;;;;5.87;5.27;;;21.50;99.90;;;;;;5011626;28;20476;-79
2021/09/10 05:15:00;;;;;;;5.67;5.20;;;21.50;99.90;;;;;;5012678;28;20468;-78
2021/09/10 05:17:29;;;;;;;6.43;5.83;;;21.50;99.90;;;;;;5001972;28;20801;-79
2021/09/10 05:19:57;;;;;;;5.40;4.90;;;21.60;99.90;;;;;;5006764;28;20511;-75
2021/09/10 05:22:26;;;;;;;6.40;5.80;;;21.60;99.90;;;;;;5002992;28;20515;-77
2021/09/10 05:24:54;;;;;;;7.13;6.40;;;21.50;99.90;;;;;;5002098;28;20489;-77
2021/09/10 05:27:23;;;;;;;6.70;6.10;;;21.60;99.90;;;;;;5007610;28;20487;-76
2021/09/10 05:29:51;;;;;;;6.40;5.90;;;21.40;99.90;;;;;;5007440;28;20457;-79
2021/09/10 05:32:19;;;;;;;6.70;6.10;;;21.40;99.90;;;;;;5007075;28;20620;-75
2021/09/10 05:34:47;;;;;;;6.90;6.30;;;21.40;99.90;;;;;;5008947;28;20453;-78
2021/09/10 05:37:15;;;;;;;7.33;6.63;;;21.30;99.90;;;;;;5007529;28;20525;-76
2021/09/10 05:39:43;;;;;;;6.00;5.50;;;21.30;99.90;;;;;;5006836;28;20460;-78
2021/09/10 05:42:11;;;;;;;6.40;5.80;;;21.30;99.90;;;;;;5004307;28;20955;-76
2021/09/10 05:44:41;;;;;;;7.97;6.27;;;21.40;99.90;;;;;;5006993;28;20454;-78
2021/09/10 05:47:10;;;;;;;5.93;5.43;;;21.60;99.90;;;;;;4999915;28;20467;-75
2021/09/10 05:49:38;;;;;;;6.53;5.90;;;21.60;99.90;;;;;;5003950;28;20535;-78
2021/09/10 05:52:09;;;;;;;6.20;5.70;;;21.50;99.90;;;;;;4999193;28;20517;-77
2021/09/10 05:54:38;;;;;;;6.40;5.80;;;21.50;99.90;;;;;;5006389;28;20467;-79
2021/09/10 05:57:06;;;;;;;9.10;6.30;;;21.70;99.90;;;;;;5004759;28;20457;-77
2021/09/10 05:59:34;;;;;;;8.03;6.17;;;21.70;99.90;;;;;;5004513;28;20467;-79
2021/09/10 06:02:08;;;;;;;6.63;6.03;;;21.80;99.90;;;;;;5003120;28;20485;-73
2021/09/10 06:04:36;;;;;;;7.03;6.43;;;21.80;99.90;;;;;;5005982;28;20972;-78
2021/09/10 06:07:05;;;;;;;6.10;5.47;;;21.90;99.90;;;;;;4999253;28;20442;-76
2021/09/10 06:09:33;;;;;;;7.73;7.03;;;21.90;99.90;;;;;;5005992;28;20481;-77
2021/09/10 06:12:01;;;;;;;7.07;6.37;;;22.00;99.90;;;;;;5005432;28;20969;-77
2021/09/10 06:14:29;;;;;;;6.90;6.30;;;22.00;99.90;;;;;;5000203;28;20484;-76
2021/09/10 06:16:57;;;;;;;6.47;5.87;;;22.00;99.90;;;;;;5004208;28;20488;-77
2021/09/10 06:19:28;;;;;;;7.03;6.33;;;22.10;99.90;;;;;;5010676;28;20491;-76
2021/09/10 06:21:56;;;;;;;6.90;5.97;;;22.20;99.90;;;;;;5006714;28;21059;-76
2021/09/10 06:24:24;;;;;;;6.30;5.80;;;22.20;99.90;;;;;;5009674;28;20463;-80
2021/09/10 06:26:53;;;;;;;6.57;5.97;;;22.30;99.90;;;;;;5003855;28;20515;-79
2021/09/10 06:29:21;;;;;;;7.00;6.40;;;22.30;99.90;;;;;;5005738;28;20475;-80
2021/09/10 06:31:50;;;;;;;6.53;5.90;;;22.30;99.90;;;;;;5001314;28;20551;-79
2021/09/10 06:34:20;;;;;;;6.30;5.70;;;22.40;99.90;;;;;;5007797;28;20464;-77
2021/09/10 06:36:50;;;;;;;6.00;5.40;;;22.40;99.90;;;;;;5009745;28;20471;-78
2021/09/10 06:39:19;;;;;;;6.53;5.70;;;22.40;99.90;;;;;;5010331;28;20503;-82
2021/09/10 06:41:47;;;;;;;7.37;6.67;;;22.30;99.90;;;;;;5007441;28;20544;-80
2021/09/10 06:44:15;;;;;;;5.90;5.40;;;22.40;99.90;;;;;;5009766;28;20535;-79
2021/09/10 06:46:44;;;;;;;6.40;5.80;;;22.40;99.90;;;;;;5009948;28;20901;-80
2021/09/10 06:49:12;;;;;;;6.03;5.60;;;22.40;99.90;;;;;;5008177;28;21058;-78
2021/09/10 06:51:40;;;;;;;6.60;5.77;;;22.40;99.90;;;;;;5005416;28;21164;-78
2021/09/10 06:54:09;;;;;;;9.47;6.40;;;22.40;99.90;;;;;;5009230;28;20455;-80
2021/09/10 06:56:37;;;;;;;6.93;6.33;;;22.50;99.90;;;;;;5010784;28;20445;-81
2021/09/10 06:59:06;;;;;;;6.87;5.27;;;22.60;99.90;;;;;;5011722;28;20433;-79
2021/09/10 07:01:35;;;;;;;6.70;6.10;;;22.60;99.90;;;;;;5005843;28;20488;-80
2021/09/10 07:04:03;;;;;;;6.73;5.73;;;22.70;99.90;;;;;;5008910;28;20211;-79
2021/09/10 07:06:32;;;;;;;6.00;5.50;;;22.80;99.90;;;;;;5005787;28;20453;-79
2021/09/10 07:09:00;;;;;;;6.27;5.70;;;22.80;99.90;;;;;;5006383;28;20536;-79
2021/09/10 07:11:32;;;;;;;5.83;5.33;;;22.70;99.90;;;;;;5008878;28;20454;-80
2021/09/10 07:14:00;;;;;;;5.97;5.57;;;22.70;99.90;;;;;;5010646;28;20445;-80
2021/09/10 07:16:29;;;;;;;7.07;5.30;;;22.70;99.90;;;;;;5003036;28;20457;-78
2021/09/10 07:18:57;;;;;;;5.40;4.90;;;22.70;99.90;;;;;;5008129;28;20463;-80
2021/09/10 07:21:26;;;;;;;6.53;5.90;;;22.70;99.90;;;;;;5007848;28;20457;-79
2021/09/10 07:23:54;;;;;;;7.70;5.10;;;22.70;99.90;;;;;;5008575;28;20484;-80
2021/09/10 07:26:23;;;;;;;7.00;6.40;;;22.80;99.90;;;;;;5010032;28;20458;-79
2021/09/10 07:28:53;;;;;;;5.70;5.17;;;22.80;99.90;;;;;;5008428;28;20476;-78
2021/09/10 07:31:21;;;;;;;5.50;5.00;;;22.80;99.90;;;;;;5008327;28;20457;-79
2021/09/10 07:33:50;;;;;;;5.87;5.47;;;22.80;99.90;;;;;;5010877;28;20468;-79
2021/09/10 07:36:20;;;;;;;5.73;5.23;;;22.90;99.90;;;;;;5010688;28;20466;-79
2021/09/10 07:38:48;;;;;;;7.90;6.27;;;22.90;99.90;;;;;;5008667;28;20515;-77
2021/09/10 07:41:16;;;;;;;5.93;5.53;;;23.00;99.90;;;;;;5006333;28;20445;-80
2021/09/10 07:43:44;;;;;;;5.63;5.13;;;23.00;99.90;;;;;;5007755;28;20456;-80
2021/09/10 07:46:15;;;;;;;5.30;4.90;;;23.00;99.90;;;;;;5004694;28;20454;-78
2021/09/10 07:48:43;;;;;;;6.27;5.63;;;23.00;99.90;;;;;;5009084;28;20827;-80
2021/09/10 07:51:11;;;;;;;5.90;5.33;;;23.00;99.90;;;;;;5008557;28;20453;-81
2021/09/10 07:53:39;;;;;;;6.03;5.03;;;22.80;99.90;;;;;;5009679;28;20515;-82
2021/09/10 07:56:07;;;;;;;5.70;5.20;;;22.80;99.90;;;;;;4997154;28;20458;-81
2021/09/10 07:58:35;;;;;;;4.73;4.37;;;22.90;99.90;;;;;;5005457;28;20458;-80
2021/09/10 08:01:03;;;;;;;5.60;5.10;;;22.90;99.90;;;;;;5008527;28;20490;-81
2021/09/10 08:03:34;;;;;;;5.70;5.20;;;23.00;99.90;;;;;;5008067;28;20485;-79
2021/09/10 08:06:03;;;;;;;6.60;5.93;;;23.00;99.90;;;;;;5004357;28;20461;-78
2021/09/10 08:08:32;;;;;;;5.87;5.40;;;23.00;99.90;;;;;;5008554;28;20450;-79
2021/09/10 08:11:00;;;;;;;5.10;4.70;;;23.10;99.90;;;;;;5009120;28;20849;-82
2021/09/10 08:13:28;;;;;;;5.63;5.20;;;23.10;99.90;;;;;;5009106;28;21051;-81
2021/09/10 08:15:57;;;;;;;5.93;5.40;;;23.20;99.90;;;;;;5005906;28;20457;-79
2021/09/10 08:18:25;;;;;;;5.73;5.17;;;23.10;99.90;;;;;;5006287;28;20489;-80
2021/09/10 08:20:59;;;;;;;5.43;4.87;;;23.20;99.90;;;;;;5008422;28;20465;-82
2021/09/10 08:23:27;;;;;;;5.30;4.90;;;23.40;99.90;;;;;;5007523;28;20891;-80
2021/09/10 08:25:56;;;;;;;6.20;4.80;;;23.50;99.90;;;;;;5009099;28;20458;-81
2021/09/10 08:28:24;;;;;;;5.70;5.10;;;23.60;99.90;;;;;;5007666;28;20453;-81
2021/09/10 08:30:52;;;;;;;6.40;5.20;;;23.60;99.90;;;;;;5007974;28;20492;-82
2021/09/10 08:33:21;;;;;;;6.00;5.37;;;23.60;99.90;;;;;;5009266;28;20504;-79
2021/09/10 08:35:49;;;;;;;5.90;5.17;;;23.60;99.90;;;;;;5008720;28;20506;-79
2021/09/10 08:38:18;;;;;;;6.80;4.90;;;23.70;99.90;;;;;;5009878;28;20945;-79
2021/09/10 08:40:47;;;;;;;5.20;4.60;;;23.80;99.90;;;;;;5004432;28;20457;-80
2021/09/10 08:43:15;;;;;;;5.20;4.70;;;23.90;99.90;;;;;;5008276;28;20508;-80
2021/09/10 08:45:43;;;;;;;6.37;5.80;;;24.10;99.90;;;;;;5007751;28;20441;-79
2021/09/10 08:48:12;;;;;;;5.60;5.13;;;24.10;99.90;;;;;;5007047;28;21071;-79
2021/09/10 08:50:40;;;;;;;5.40;5.00;;;24.10;99.90;;;;;;5007592;28;20847;-80
2021/09/10 08:53:09;;;;;;;4.93;4.60;;;24.20;99.90;;;;;;5007420;28;20985;-80
2021/09/10 08:55:41;;;;;;;7.40;5.33;;;24.20;99.90;;;;;;5010062;28;20463;-79
2021/09/10 08:58:10;;;;;;;5.17;4.67;;;24.30;99.90;;;;;;5007074;28;20803;-80
2021/09/10 09:00:41;;;;;;;8.30;5.57;;;24.20;99.90;;;;;;5006359;28;20489;-79
2021/09/10 09:03:11;;;;;;;6.27;5.00;;;24.20;99.90;;;;;;5005747;28;20488;-82
2021/09/10 09:05:40;;;;;;;5.33;4.83;;;24.20;99.90;;;;;;5007720;28;20445;-80
2021/09/10 09:08:11;;;;;;;5.50;5.00;;;24.10;99.90;;;;;;5007080;28;20457;-80
2021/09/10 09:11:03;;;;;;;5.30;4.80;;;24.00;99.90;;;;;;5002005;28;20485;-79
2021/09/10 09:13:34;;;;;;;5.77;5.27;;;24.10;99.90;;;;;;4995621;28;20593;-78
2021/09/10 09:16:19;;;;;;;5.13;4.57;;;24.10;99.90;;;;;;5008823;28;20517;-79
2021/09/10 09:18:49;;;;;;;5.80;5.27;;;24.20;99.90;;;;;;5004053;28;20896;-78
2021/09/10 09:21:25;;;;;;;4.47;4.17;;;24.40;99.90;;;;;;5004313;28;20976;-81
2021/09/10 09:23:54;;;;;;;6.37;5.77;;;24.50;99.90;;;;;;5006046;28;20453;-78
2021/09/10 09:26:25;;;;;;;5.20;4.80;;;24.30;99.90;;;;;;5004560;28;20548;-76
2021/09/10 09:29:06;;;;;;;6.03;5.47;;;24.10;99.90;;;;;;5002370;28;20449;-76
2021/09/10 09:31:34;;;;;;;5.07;4.40;;;24.10;99.90;;;;;;5003681;28;20500;-80
2021/09/10 09:34:03;;;;;;;8.63;5.97;;;24.20;99.90;;;;;;5007055;28;20468;-79
2021/09/10 09:36:32;;;;;;;5.73;5.23;;;24.20;99.90;;;;;;5005992;28;21051;-79
2021/09/10 09:39:08;;;;;;;5.37;4.97;;;24.20;99.90;;;;;;5006005;28;20847;-79
2021/09/10 09:41:43;;;;;;;5.57;5.07;;;24.30;99.90;;;;;;5002349;28;20473;-81
2021/09/10 09:44:13;;;;;;;5.90;5.40;;;24.20;99.90;;;;;;5007746;28;20555;-81
2021/09/10 09:46:44;;;;;;;5.53;5.03;;;24.20;99.90;;;;;;5004232;28;20453;-80
2021/09/10 09:49:14;;;;;;;5.50;4.97;;;24.30;99.90;;;;;;5005287;28;20957;-79
2021/09/10 09:51:58;;;;;;;6.20;5.70;;;24.30;99.90;;;;;;5006838;28;21030;-80
2021/09/10 09:54:30;;;;;;;5.60;5.10;;;24.40;99.90;;;;;;5007089;28;20469;-77
2021/09/10 09:56:59;;;;;;;5.03;4.63;;;24.20;99.90;;;;;;5008014;28;20519;-79
2021/09/10 09:59:31;;;;;;;5.90;5.40;;;24.30;99.90;;;;;;5005737;28;20453;-79
2021/09/10 10:01:59;;;;;;;5.63;5.13;;;24.40;99.90;;;;;;5005324;28;20817;-81
2021/09/10 10:04:28;;;;;;;6.97;6.37;;;24.50;99.90;;;;;;5006168;28;20478;-79
2021/09/10 10:06:56;;;;;;;6.63;4.73;;;24.70;99.90;;;;;;5006899;28;20453;-79
2021/09/10 10:09:25;;;;;;;6.00;5.43;;;24.70;99.90;;;;;;5005060;28;20471;-78
2021/09/10 10:11:59;;;;;;;6.33;5.73;;;24.70;99.90;;;;;;5003974;28;20539;-81
2021/09/10 10:14:33;;;;;;;7.30;4.97;;;24.80;99.90;;;;;;5007452;28;20465;-79
2021/09/10 10:17:02;;;;;;;7.50;5.03;;;24.90;99.90;;;;;;5000412;28;20972;-80
2021/09/10 10:19:48;;;;;;;7.13;5.60;;;24.90;99.90;;;;;;5005657;28;20452;-80
2021/09/10 10:22:33;;;;;;;7.53;5.10;;;25.00;99.90;;;;;;5002464;28;20517;-79
2021/09/10 10:25:02;;;;;;;5.80;5.20;;;25.00;99.90;;;;;;5002898;28;20919;-79
2021/09/10 10:27:41;;;;;;;5.80;5.30;;;25.00;99.90;;;;;;5008184;28;20434;-79
2021/09/10 10:30:47;;;;;;;6.03;5.53;;;25.00;99.90;;;;;;5002164;28;20450;-76
2021/09/10 10:33:25;;;;;;;5.80;5.30;;;25.00;99.90;;;;;;5002212;28;20989;-80
2021/09/10 10:35:53;;;;;;;5.53;5.13;;;25.00;99.90;;;;;;5005174;28;20541;-78
2021/09/10 10:38:21;;;;;;;5.97;5.57;;;25.00;99.90;;;;;;5007836;28;20438;-79
2021/09/10 10:40:51;;;;;;;5.70;5.20;;;25.00;99.90;;;;;;4999394;28;20453;-78
2021/09/10 10:43:30;;;;;;;6.20;5.57;;;25.00;99.90;;;;;;5003790;28;20469;-80
2021/09/10 10:46:07;;;;;;;6.17;4.63;;;25.10;99.90;;;;;;4999663;28;20459;-80
2021/09/10 10:48:49;;;;;;;5.80;5.30;;;25.20;99.90;;;;;;5002374;28;20511;-80
2021/09/10 10:51:44;;;;;;;6.00;5.40;;;25.30;99.90;;;;;;5006575;28;20493;-78
2021/09/10 10:54:13;;;;;;;6.10;5.60;;;25.40;99.90;;;;;;5005451;28;20465;-80
2021/09/10 10:56:46;;;;;;;5.43;5.03;;;25.40;99.90;;;;;;5006705;28;20512;-78
2021/09/10 10:59:38;;;;;;;5.70;5.20;;;25.40;99.90;;;;;;5001812;28;20457;-80
2021/09/10 11:02:41;;;;;;;5.50;4.97;;;25.50;99.90;;;;;;4993161;28;20789;-80
2021/09/10 11:05:18;;;;;;;6.00;5.10;;;25.60;99.90;;;;;;4991196;28;20832;-79
2021/09/10 11:07:47;;;;;;;6.00;5.57;;;25.70;99.90;;;;;;5009165;28;20900;-81
2021/09/10 11:10:18;;;;;;;8.33;6.00;;;25.80;99.90;;;;;;5009901;28;20511;-81
2021/09/10 11:12:48;;;;;;;5.33;4.93;;;25.90;99.90;;;;;;5006633;28;21008;-79
2021/09/10 11:15:24;;;;;;;5.27;4.80;;;25.90;99.90;;;;;;5007377;28;20468;-79
2021/09/10 11:17:56;;;;;;;5.80;5.20;;;26.00;99.90;;;;;;5005710;28;20442;-79
2021/09/10 11:20:34;;;;;;;5.60;5.10;;;26.00;99.90;;;;;;5007516;28;20981;-78
2021/09/10 11:23:03;;;;;;;5.47;4.97;;;26.00;99.90;;;;;;5008411;28;20483;-79
2021/09/10 11:25:32;;;;;;;7.47;6.77;;;26.00;99.90;;;;;;5010449;28;20453;-79
2021/09/10 11:28:07;;;;;;;6.07;5.50;;;26.10;99.90;;;;;;5006463;28;20461;-80
2021/09/10 11:30:36;;;;;;;5.67;5.27;;;26.00;99.90;;;;;;5007115;28;20534;-82
2021/09/10 11:33:05;;;;;;;5.27;4.77;;;25.80;99.90;;;;;;5006849;28;20861;-80
2021/09/10 11:35:36;;;;;;;5.67;4.90;;;25.80;99.90;;;;;;5007638;28;20945;-79
2021/09/10 11:38:06;;;;;;;6.43;5.60;;;25.80;99.90;;;;;;5005375;28;21004;-81
2021/09/10 11:40:37;;;;;;;6.13;5.63;;;25.90;99.90;;;;;;4999825;28;21276;-79
2021/09/10 11:43:08;;;;;;;5.50;5.00;;;26.00;99.90;;;;;;4989103;28;20548;-79
2021/09/10 11:45:38;;;;;;;6.43;5.93;;;26.00;99.90;;;;;;5006269;28;20536;-80
2021/09/10 11:48:09;;;;;;;5.60;5.10;;;26.00;99.90;;;;;;5006718;28;20473;-80
2021/09/10 11:50:50;;;;;;;7.20;6.13;;;26.00;99.90;;;;;;5004083;28;20462;-77
2021/09/10 11:53:19;;;;;;;5.80;5.30;;;25.80;99.90;;;;;;5005164;28;20498;-80
2021/09/10 11:56:00;;;;;;;6.70;6.20;;;25.70;99.90;;;;;;4997752;28;20493;-78
2021/09/10 11:58:40;;;;;;;5.43;5.00;;;25.60;99.90;;;;;;5002926;28;20947;-79
2021/09/10 12:01:38;;;;;;;5.57;5.10;;;25.70;99.90;;;;;;5006571;28;20465;-79
2021/09/10 12:04:10;;;;;;;7.17;5.70;;;25.70;99.90;;;;;;4997564;28;20987;-79
2021/09/10 12:06:46;;;;;;;6.00;5.47;;;25.80;99.90;;;;;;5008227;28;21031;-78
2021/09/10 12:09:18;;;;;;;5.53;5.03;;;25.70;99.90;;;;;;5008559;28;20461;-80
2021/09/10 12:12:14;;;;;;;5.77;5.27;;;25.70;99.90;;;;;;5008876;28;20485;-80
2021/09/10 12:14:44;;;;;;;5.53;5.13;;;25.80;99.90;;;;;;5006027;28;20537;-80
2021/09/10 12:17:16;;;;;;;5.93;5.30;;;25.90;99.90;;;;;;5001607;28;20892;-79
2021/09/10 12:19:50;;;;;;;5.70;5.20;;;25.90;99.90;;;;;;5006879;28;20453;-80
2021/09/10 12:22:40;;;;;;;6.20;5.70;;;26.00;99.90;;;;;;4992690;28;20539;-79
2021/09/10 12:25:27;;;;;;;5.00;4.60;;;26.00;99.90;;;;;;5006673;28;20482;-78
2021/09/10 12:27:58;;;;;;;5.40;5.00;;;26.00;99.90;;;;;;4995086;28;20741;-79
2021/09/10 12:30:28;;;;;;;4.87;4.40;;;26.10;99.90;;;;;;5006034;28;20974;-80
2021/09/10 12:32:56;;;;;;;5.63;5.20;;;26.20;99.90;;;;;;5006745;28;20469;-81
2021/09/10 12:35:28;;;;;;;5.03;4.63;;;26.10;99.90;;;;;;5006934;28;20461;-79
2021/09/10 12:37:58;;;;;;;5.30;4.80;;;26.20;99.90;;;;;;5007324;28;21007;-79
2021/09/10 12:40:31;;;;;;;4.80;4.30;;;26.10;99.90;;;;;;5005622;28;20508;-80
2021/09/10 12:42:59;;;;;;;5.10;4.70;;;26.20;99.90;;;;;;5007180;28;21152;-79
2021/09/10 12:45:28;;;;;;;3.80;3.50;;;26.00;99.90;;;;;;5002918;28;20446;-80
2021/09/10 12:47:56;;;;;;;4.30;4.00;;;26.00;99.90;;;;;;5005832;28;20445;-81
2021/09/10 12:50:26;;;;;;;3.80;3.60;;;26.10;99.90;;;;;;5004800;28;20453;-82
2021/09/10 12:52:54;;;;;;;3.43;3.23;;;26.10;99.90;;;;;;5006861;28;20940;-80
2021/09/10 12:55:23;;;;;;;3.20;3.00;;;26.10;99.90;;;;;;5008021;28;20461;-81
2021/09/10 12:57:51;;;;;;;3.70;3.50;;;26.20;99.90;;;;;;5007071;28;20508;-79
2021/09/10 13:00:19;;;;;;;3.10;2.80;;;26.20;99.90;;;;;;5004995;28;20528;-81
2021/09/10 13:02:47;;;;;;;3.13;2.83;;;26.30;99.90;;;;;;5006491;28;20540;-78